createdAt,value
2022-11-19T00:04:07.542Z,14.02
2022-11-19T00:09:09.346Z,15.40
2022-11-19T00:14:14.910Z,13.18
2022-11-19T00:19:17.014Z,18.83
2022-11-19T00:24:19.089Z,19.20
2022-11-19T00:29:21.204Z,19.43
2022-11-19T00:34:23.103Z,17.00
2022-11-19T00:39:24.835Z,18.90
2022-11-19T00:44:26.553Z,16.23
2022-11-19T00:49:28.221Z,22.83
2022-11-19T00:54:30.241Z,16.15
2022-11-19T00:59:31.969Z,15.32
2022-11-19T01:04:33.681Z,14.48
2022-11-19T01:09:35.379Z,12.57
2022-11-19T01:14:37.046Z,14.63
2022-11-19T01:19:38.707Z,13.27
2022-11-19T01:24:40.426Z,11.35
2022-11-19T01:29:42.113Z,9.55
2022-11-19T01:34:43.822Z,11.43
2022-11-19T01:39:45.587Z,11.00
2022-11-19T01:45:01.051Z,10.90
2022-11-19T01:50:03.026Z,10.90
2022-11-19T01:55:05.294Z,15.02
2022-11-19T02:00:08.458Z,12.48
2022-11-19T02:05:10.176Z,14.07
2022-11-19T02:10:12.282Z,11.63
2022-11-19T02:15:19.888Z,11.23
2022-11-19T02:20:37.292Z,8.67
2022-11-19T02:25:38.967Z,6.03
2022-11-19T02:30:50.117Z,8.25
2022-11-19T02:36:23.233Z,4.57
2022-11-19T02:41:34.252Z,5.13
2022-11-19T02:46:36.567Z,7.95
2022-11-19T02:51:38.726Z,5.30
2022-11-19T02:56:54.919Z,4.68
2022-11-19T03:01:57.418Z,4.00
2022-11-19T03:07:09.348Z,3.28
2022-11-19T03:12:20.734Z,4.37
2022-11-19T03:17:37.522Z,5.22
2022-11-19T03:22:51.986Z,5.53
2022-11-19T03:27:58.527Z,3.45
2022-11-19T03:33:14.947Z,3.22
2022-11-19T03:38:23.293Z,4.18
2022-11-19T03:43:29.231Z,2.70
2022-11-19T03:48:31.474Z,4.10
2022-11-19T03:53:33.283Z,5.78
2022-11-19T03:58:40.562Z,3.50
2022-11-19T04:03:42.313Z,3.90
2022-11-19T04:08:44.084Z,5.10
2022-11-19T04:13:45.767Z,3.75
2022-11-19T04:18:47.419Z,5.00
2022-11-19T04:23:49.384Z,3.60
2022-11-19T04:28:51.125Z,6.82
2022-11-19T04:33:52.777Z,6.60
2022-11-19T04:38:54.574Z,3.05
2022-11-19T04:43:56.367Z,3.87
2022-11-19T04:48:58.205Z,3.25
2022-11-19T04:53:59.957Z,3.85
2022-11-19T04:59:01.689Z,2.97
2022-11-19T05:04:03.472Z,3.30
2022-11-19T05:09:05.247Z,3.80
2022-11-19T05:14:06.974Z,4.55
2022-11-19T05:19:08.750Z,3.30
2022-11-19T05:24:10.596Z,3.70
2022-11-19T05:29:12.396Z,4.13
2022-11-19T05:34:14.156Z,3.70
2022-11-19T05:39:21.645Z,3.95
2022-11-19T05:44:23.980Z,7.07
2022-11-19T05:49:25.842Z,3.58
2022-11-19T05:54:27.590Z,7.10
2022-11-19T05:59:29.330Z,4.60
2022-11-19T06:04:31.345Z,4.60
2022-11-19T06:09:33.080Z,5.20
2022-11-19T06:14:34.843Z,3.83
2022-11-19T06:19:36.523Z,4.43
2022-11-19T06:24:38.240Z,2.53
2022-11-19T06:29:39.927Z,2.63
2022-11-19T06:34:41.618Z,2.70
2022-11-19T06:39:43.512Z,4.20
2022-11-19T06:44:45.244Z,5.18
2022-11-19T06:49:46.956Z,6.53
2022-11-19T06:54:49.395Z,3.57
2022-11-19T06:59:51.190Z,3.43
2022-11-19T07:04:52.900Z,2.50
2022-11-19T07:09:54.610Z,3.53
2022-11-19T07:15:01.122Z,2.88
2022-11-19T07:20:06.435Z,4.03
2022-11-19T07:25:09.417Z,7.00
2022-11-19T07:30:11.287Z,3.70
2022-11-19T07:35:13.004Z,3.22
2022-11-19T07:40:15.003Z,3.00
2022-11-19T07:45:18.307Z,4.20
2022-11-19T07:50:20.010Z,4.88
2022-11-19T07:55:21.776Z,4.88
2022-11-19T08:00:23.578Z,4.63
2022-11-19T08:05:25.295Z,3.50
2022-11-19T08:10:31.631Z,4.88
2022-11-19T08:15:34.420Z,4.25
2022-11-19T08:20:36.157Z,6.05
2022-11-19T08:25:38.608Z,4.47
2022-11-19T08:30:40.425Z,25.60
2022-11-19T08:35:42.123Z,3.83
2022-11-19T08:40:43.872Z,3.10
2022-11-19T08:45:52.738Z,4.07
2022-11-19T08:50:54.508Z,5.55
2022-11-19T08:55:56.191Z,2.77
2022-11-19T09:00:57.945Z,4.95
2022-11-19T09:06:00.494Z,4.90
2022-11-19T09:11:17.384Z,5.55
2022-11-19T09:16:19.117Z,4.45
2022-11-19T09:21:20.825Z,5.00
2022-11-19T09:26:22.551Z,5.22
2022-11-19T09:31:24.378Z,7.32
2022-11-19T09:36:26.120Z,5.67
2022-11-19T09:42:02.112Z,5.15
2022-11-19T09:47:07.011Z,4.78
2022-11-19T09:52:15.694Z,4.65
2022-11-19T09:57:46.334Z,5.88
2022-11-19T10:02:48.227Z,5.97
2022-11-19T10:07:58.847Z,5.13
2022-11-19T10:13:27.842Z,3.77
2022-11-19T10:18:38.525Z,4.63
2022-11-19T10:24:18.033Z,3.90
2022-11-19T10:29:25.896Z,3.35
2022-11-19T10:34:36.589Z,3.65
2022-11-19T10:39:56.954Z,3.72
2022-11-19T10:45:13.598Z,5.72
2022-11-19T10:50:24.074Z,4.03
2022-11-19T10:55:41.605Z,5.25
2022-11-19T11:00:43.961Z,4.30
2022-11-19T11:05:58.158Z,4.75
2022-11-19T11:11:00.821Z,5.53
2022-11-19T11:16:11.379Z,3.85
2022-11-19T11:21:28.750Z,4.35
2022-11-19T11:26:33.293Z,2.42
2022-11-19T11:31:36.217Z,3.17
2022-11-19T11:36:38.365Z,3.60
2022-11-19T11:47:13.026Z,3.28
2022-11-19T11:52:22.413Z,3.87
2022-11-19T11:57:27.504Z,4.80
2022-11-19T12:02:32.072Z,3.60
2022-11-19T12:07:46.073Z,2.90
2022-11-19T12:12:56.338Z,3.97
2022-11-19T12:18:19.087Z,2.97
2022-11-19T12:23:20.755Z,3.75
2022-11-19T12:28:31.694Z,3.23
2022-11-19T12:33:56.059Z,3.85
2022-11-19T12:39:00.605Z,8.25
2022-11-19T12:44:08.254Z,4.60
2022-11-19T12:49:22.588Z,7.10
2022-11-19T12:54:35.423Z,5.32
2022-11-19T13:00:03.638Z,5.10
2022-11-19T13:05:14.008Z,4.60
2022-11-19T13:10:21.835Z,5.47
2022-11-19T13:15:43.315Z,4.50
2022-11-19T13:20:56.623Z,6.93
2022-11-19T13:26:06.457Z,5.63
2022-11-19T13:31:22.337Z,3.83
2022-11-19T13:36:40.939Z,6.07
2022-11-19T13:41:54.997Z,5.07
2022-11-19T13:47:01.239Z,4.25
2022-11-19T13:52:31.226Z,4.75
2022-11-19T13:57:37.400Z,6.65
2022-11-19T14:02:41.886Z,5.78
2022-11-19T14:08:07.743Z,7.97
2022-11-19T14:13:29.692Z,8.77
2022-11-19T14:18:39.546Z,7.40
2022-11-19T14:23:49.466Z,6.05
2022-11-19T14:28:52.793Z,8.02
2022-11-19T14:34:01.996Z,9.68
2022-11-19T14:39:13.168Z,6.03
2022-11-19T14:44:27.074Z,5.70
2022-11-19T14:49:36.902Z,10.13
2022-11-19T14:54:45.464Z,7.63
2022-11-19T14:59:52.191Z,6.53
2022-11-19T15:04:58.998Z,5.47
2022-11-19T15:10:10.446Z,9.10
2022-11-19T15:15:21.960Z,5.57
2022-11-19T15:20:36.975Z,4.97
2022-11-19T15:25:52.215Z,6.70
2022-11-19T15:31:23.247Z,4.80
2022-11-19T15:36:45.067Z,7.32
2022-11-19T15:41:51.056Z,4.45
2022-11-19T15:46:56.596Z,5.57
2022-11-19T15:52:14.616Z,7.37
2022-11-19T15:57:19.472Z,8.18
2022-11-19T16:02:37.699Z,6.97
2022-11-19T16:07:40.509Z,5.45
2022-11-19T16:12:55.218Z,6.85
2022-11-19T16:17:57.867Z,8.70
2022-11-19T16:23:07.827Z,9.45
2022-11-19T16:28:19.902Z,8.73
2022-11-19T16:33:28.040Z,10.85
2022-11-19T16:38:30.160Z,10.30
2022-11-19T16:43:32.002Z,12.13
2022-11-19T16:48:42.537Z,9.60
2022-11-19T16:53:46.263Z,7.50
2022-11-19T16:58:48.029Z,10.13
2022-11-19T17:03:49.870Z,9.30
2022-11-19T17:08:57.234Z,9.60
2022-11-19T17:14:03.926Z,9.75
2022-11-19T17:19:32.506Z,12.97
2022-11-19T17:24:45.047Z,10.82
2022-11-19T17:29:46.804Z,9.82
2022-11-19T17:34:48.491Z,10.45
2022-11-19T17:39:50.182Z,13.00
2022-11-19T17:44:52.011Z,10.90
2022-11-19T17:49:53.754Z,10.75
2022-11-19T17:54:58.662Z,10.65
2022-11-19T18:00:00.482Z,10.60
2022-11-19T18:05:02.332Z,9.40
2022-11-19T18:10:04.459Z,7.90
2022-11-19T18:15:06.656Z,8.30
2022-11-19T18:20:09.125Z,9.77
2022-11-19T18:25:16.013Z,9.27
2022-11-19T18:30:17.868Z,10.55
2022-11-19T18:35:20.765Z,8.00
2022-11-19T18:40:22.456Z,11.07
2022-11-19T18:45:25.028Z,9.95
2022-11-19T18:50:30.149Z,12.70
2022-11-19T18:55:32.171Z,15.25
2022-11-19T19:00:34.031Z,10.70
2022-11-19T19:05:35.747Z,13.00
2022-11-19T19:10:38.025Z,13.55
2022-11-19T19:15:40.348Z,16.05
2022-11-19T19:20:42.099Z,18.52
2022-11-19T19:25:43.809Z,12.02
2022-11-19T19:30:45.517Z,9.55
2022-11-19T19:35:47.253Z,18.00
2022-11-19T19:40:48.956Z,19.20
2022-11-19T19:45:50.658Z,11.10
2022-11-19T19:50:52.314Z,13.00
2022-11-19T19:56:04.883Z,13.68
2022-11-19T20:01:08.977Z,13.00
2022-11-19T20:06:12.940Z,13.38
2022-11-19T20:11:17.994Z,16.60
2022-11-19T20:16:28.435Z,14.13
2022-11-19T20:21:32.229Z,16.60
2022-11-19T20:26:34.424Z,14.37
2022-11-19T20:31:36.148Z,19.05
2022-11-19T20:36:38.064Z,14.87
2022-11-19T20:41:39.967Z,14.05
2022-11-19T20:46:41.831Z,16.13
2022-11-19T20:51:43.842Z,12.43
2022-11-19T20:56:46.034Z,18.07
2022-11-19T21:01:49.867Z,13.52
2022-11-19T21:06:52.028Z,13.37
2022-11-19T21:11:54.081Z,15.90
2022-11-19T21:16:56.100Z,17.20
2022-11-19T21:21:58.174Z,17.67
2022-11-19T21:27:00.590Z,18.42
2022-11-19T21:32:02.468Z,18.23
2022-11-19T21:37:04.174Z,15.57
2022-11-19T21:42:05.985Z,15.75
2022-11-19T21:47:08.116Z,13.73
2022-11-19T21:52:09.859Z,12.57
2022-11-19T21:57:11.602Z,13.40
2022-11-19T22:02:14.048Z,14.80
2022-11-19T22:07:16.259Z,12.82
2022-11-19T22:12:18.002Z,13.40
2022-11-19T22:17:19.699Z,12.15
2022-11-19T22:22:21.612Z,14.97
2022-11-19T22:27:23.370Z,13.02
2022-11-19T22:32:25.039Z,13.90
2022-11-19T22:37:26.729Z,13.03
2022-11-19T22:42:28.493Z,15.30
2022-11-19T22:47:30.203Z,15.88
2022-11-19T22:52:31.945Z,15.43
2022-11-19T22:57:33.632Z,15.60
2022-11-19T23:02:35.509Z,13.07
2022-11-19T23:07:37.209Z,18.27
2022-11-19T23:12:38.998Z,14.37
2022-11-19T23:17:43.713Z,15.55
2022-11-19T23:22:45.567Z,13.73
2022-11-19T23:27:47.273Z,27.10
2022-11-19T23:32:48.930Z,13.90
2022-11-19T23:37:50.640Z,9.88
2022-11-19T23:42:52.382Z,13.00
2022-11-19T23:47:54.079Z,12.45
2022-11-19T23:52:55.784Z,11.45
2022-11-19T23:57:57.522Z,10.05
